sensor_id;sensor_type;location;lat;lon;timestamp;P1;P2;P0
73631;PMS5003;61924;53.268;-2.458;2023-01-15T00:01:17;1;1;
73631;PMS5003;61924;53.268;-2.458;2023-01-15T00:03:41;1;1;
73631;PMS5003;61924;53.268;-2.458;2023-01-15T00:06:06;1;1;
73631;PMS5003;61924;53.268;-2.458;2023-01-15T00:08:32;2;2;
73631;PMS5003;61924;53.268;-2.458;2023-01-15T00:10:58;0;0;
73631;PMS5003;61924;53.268;-2.458;2023-01-15T00:13:23;1;1;
73631;PMS5003;61924;53.268;-2.458;2023-01-15T00:15:48;1;1;
73631;PMS5003;61924;53.268;-2.458;2023-01-15T00:18:14;1;1;
73631;PMS5003;61924;53.268;-2.458;2023-01-15T00:20:39;1;1;
73631;PMS5003;61924;53.268;-2.458;2023-01-15T00:23:05;3;3;
73631;PMS5003;61924;53.268;-2.458;2023-01-15T00:25:30;2;2;
73631;PMS5003;61924;53.268;-2.458;2023-01-15T00:27:56;2;2;
73631;PMS5003;61924;53.268;-2.458;2023-01-15T00:30:22;1;1;
73631;PMS5003;61924;53.268;-2.458;2023-01-15T00:32:47;1;1;
73631;PMS5003;61924;53.268;-2.458;2023-01-15T00:35:13;2;2;
73631;PMS5003;61924;53.268;-2.458;2023-01-15T00:37:38;2;2;
73631;PMS5003;61924;53.268;-2.458;2023-01-15T00:40:03;0;0;
73631;PMS5003;61924;53.268;-2.458;2023-01-15T00:42:29;2;2;
73631;PMS5003;61924;53.268;-2.458;2023-01-15T00:44:54;0;0;
73631;PMS5003;61924;53.268;-2.458;2023-01-15T00:47:20;0;0;
73631;PMS5003;61924;53.268;-2.458;2023-01-15T00:49:46;2;2;
73631;PMS5003;61924;53.268;-2.458;2023-01-15T00:52:11;1;1;
73631;PMS5003;61924;53.268;-2.458;2023-01-15T00:54:36;1;1;
73631;PMS5003;61924;53.268;-2.458;2023-01-15T00:57:02;1;1;
73631;PMS5003;61924;53.268;-2.458;2023-01-15T00:59:27;3;2;
73631;PMS5003;61924;53.268;-2.458;2023-01-15T01:01:53;1;1;
73631;PMS5003;61924;53.268;-2.458;2023-01-15T01:04:18;1;0;
73631;PMS5003;61924;53.268;-2.458;2023-01-15T01:06:43;1;1;
73631;PMS5003;61924;53.268;-2.458;2023-01-15T01:09:09;1;1;
73631;PMS5003;61924;53.268;-2.458;2023-01-15T01:11:35;1;1;
73631;PMS5003;61924;53.268;-2.458;2023-01-15T01:14:00;1;1;
73631;PMS5003;61924;53.268;-2.458;2023-01-15T01:16:26;2;2;
73631;PMS5003;61924;53.268;-2.458;2023-01-15T01:18:50;2;2;
73631;PMS5003;61924;53.268;-2.458;2023-01-15T01:21:15;1;0;
73631;PMS5003;61924;53.268;-2.458;2023-01-15T01:23:41;2;2;
73631;PMS5003;61924;53.268;-2.458;2023-01-15T01:26:06;0;0;
73631;PMS5003;61924;53.268;-2.458;2023-01-15T01:28:32;0;0;
73631;PMS5003;61924;53.268;-2.458;2023-01-15T01:30:57;1;1;
73631;PMS5003;61924;53.268;-2.458;2023-01-15T01:33:23;0;0;
73631;PMS5003;61924;53.268;-2.458;2023-01-15T01:35:48;1;1;
73631;PMS5003;61924;53.268;-2.458;2023-01-15T01:38:14;1;1;
73631;PMS5003;61924;53.268;-2.458;2023-01-15T01:40:39;1;1;
73631;PMS5003;61924;53.268;-2.458;2023-01-15T01:43:05;1;1;
73631;PMS5003;61924;53.268;-2.458;2023-01-15T01:45:30;1;1;
73631;PMS5003;61924;53.268;-2.458;2023-01-15T01:47:56;0;0;
73631;PMS5003;61924;53.268;-2.458;2023-01-15T01:50:21;0;0;
73631;PMS5003;61924;53.268;-2.458;2023-01-15T01:52:48;0;0;
73631;PMS5003;61924;53.268;-2.458;2023-01-15T01:55:13;2;1;
73631;PMS5003;61924;53.268;-2.458;2023-01-15T01:57:37;2;2;
73631;PMS5003;61924;53.268;-2.458;2023-01-15T02:00:03;0;0;
73631;PMS5003;61924;53.268;-2.458;2023-01-15T02:02:28;1;1;
73631;PMS5003;61924;53.268;-2.458;2023-01-15T02:04:54;0;0;
73631;PMS5003;61924;53.268;-2.458;2023-01-15T02:07:19;1;1;
73631;PMS5003;61924;53.268;-2.458;2023-01-15T02:09:45;1;1;
73631;PMS5003;61924;53.268;-2.458;2023-01-15T02:12:11;0;0;
73631;PMS5003;61924;53.268;-2.458;2023-01-15T02:14:37;0;0;
73631;PMS5003;61924;53.268;-2.458;2023-01-15T02:17:03;0;0;
73631;PMS5003;61924;53.268;-2.458;2023-01-15T02:19:30;1;1;
73631;PMS5003;61924;53.268;-2.458;2023-01-15T02:21:52;1;1;
73631;PMS5003;61924;53.268;-2.458;2023-01-15T02:24:16;0;0;
73631;PMS5003;61924;53.268;-2.458;2023-01-15T02:27:14;0;0;
73631;PMS5003;61924;53.268;-2.458;2023-01-15T02:29:08;0;0;
73631;PMS5003;61924;53.268;-2.458;2023-01-15T02:31:33;1;1;
73631;PMS5003;61924;53.268;-2.458;2023-01-15T02:34:00;0;0;
73631;PMS5003;61924;53.268;-2.458;2023-01-15T02:36:24;0;0;
73631;PMS5003;61924;53.268;-2.458;2023-01-15T02:38:50;0;0;
73631;PMS5003;61924;53.268;-2.458;2023-01-15T02:41:16;0;0;
73631;PMS5003;61924;53.268;-2.458;2023-01-15T02:43:40;0;0;
73631;PMS5003;61924;53.268;-2.458;2023-01-15T02:46:06;1;1;
73631;PMS5003;61924;53.268;-2.458;2023-01-15T02:48:32;0;0;
73631;PMS5003;61924;53.268;-2.458;2023-01-15T02:50:58;0;0;
73631;PMS5003;61924;53.268;-2.458;2023-01-15T02:53:24;0;0;
73631;PMS5003;61924;53.268;-2.458;2023-01-15T02:55:48;2;2;
73631;PMS5003;61924;53.268;-2.458;2023-01-15T02:58:15;1;0;
73631;PMS5003;61924;53.268;-2.458;2023-01-15T03:00:40;1;1;
73631;PMS5003;61924;53.268;-2.458;2023-01-15T03:03:06;0;0;
73631;PMS5003;61924;53.268;-2.458;2023-01-15T03:05:30;1;1;
73631;PMS5003;61924;53.268;-2.458;2023-01-15T03:07:55;1;1;
73631;PMS5003;61924;53.268;-2.458;2023-01-15T03:10:20;1;0;
73631;PMS5003;61924;53.268;-2.458;2023-01-15T03:12:45;0;0;
73631;PMS5003;61924;53.268;-2.458;2023-01-15T03:15:11;1;1;
73631;PMS5003;61924;53.268;-2.458;2023-01-15T03:17:38;0;0;
73631;PMS5003;61924;53.268;-2.458;2023-01-15T03:20:04;1;1;
73631;PMS5003;61924;53.268;-2.458;2023-01-15T03:22:28;0;0;
73631;PMS5003;61924;53.268;-2.458;2023-01-15T03:24:53;1;1;
73631;PMS5003;61924;53.268;-2.458;2023-01-15T03:27:18;0;0;
73631;PMS5003;61924;53.268;-2.458;2023-01-15T03:29:45;0;0;
73631;PMS5003;61924;53.268;-2.458;2023-01-15T03:32:09;1;1;
73631;PMS5003;61924;53.268;-2.458;2023-01-15T03:34:35;2;1;
73631;PMS5003;61924;53.268;-2.458;2023-01-15T03:37:00;2;2;
73631;PMS5003;61924;53.268;-2.458;2023-01-15T03:39:25;2;2;
73631;PMS5003;61924;53.268;-2.458;2023-01-15T03:41:53;1;0;
73631;PMS5003;61924;53.268;-2.458;2023-01-15T03:44:20;0;0;
73631;PMS5003;61924;53.268;-2.458;2023-01-15T03:46:46;1;1;
73631;PMS5003;61924;53.268;-2.458;2023-01-15T03:49:08;0;0;
73631;PMS5003;61924;53.268;-2.458;2023-01-15T03:51:34;1;1;
73631;PMS5003;61924;53.268;-2.458;2023-01-15T03:53:58;0;0;
73631;PMS5003;61924;53.268;-2.458;2023-01-15T03:56:25;0;0;
73631;PMS5003;61924;53.268;-2.458;2023-01-15T03:58:49;1;1;
73631;PMS5003;61924;53.268;-2.458;2023-01-15T04:01:15;0;0;
73631;PMS5003;61924;53.268;-2.458;2023-01-15T04:03:39;0;0;
73631;PMS5003;61924;53.268;-2.458;2023-01-15T04:06:05;0;0;
73631;PMS5003;61924;53.268;-2.458;2023-01-15T04:08:31;1;1;
73631;PMS5003;61924;53.268;-2.458;2023-01-15T04:10:57;1;0;
73631;PMS5003;61924;53.268;-2.458;2023-01-15T04:13:22;0;0;
73631;PMS5003;61924;53.268;-2.458;2023-01-15T04:15:47;0;0;
73631;PMS5003;61924;53.268;-2.458;2023-01-15T04:18:12;1;1;
73631;PMS5003;61924;53.268;-2.458;2023-01-15T04:20:37;0;0;
73631;PMS5003;61924;53.268;-2.458;2023-01-15T04:23:03;2;1;
73631;PMS5003;61924;53.268;-2.458;2023-01-15T04:25:28;1;0;
73631;PMS5003;61924;53.268;-2.458;2023-01-15T04:27:54;1;1;
73631;PMS5003;61924;53.268;-2.458;2023-01-15T04:30:19;1;0;
73631;PMS5003;61924;53.268;-2.458;2023-01-15T04:32:46;2;2;
73631;PMS5003;61924;53.268;-2.458;2023-01-15T04:35:10;0;0;
73631;PMS5003;61924;53.268;-2.458;2023-01-15T04:37:35;1;1;
73631;PMS5003;61924;53.268;-2.458;2023-01-15T04:40:01;1;1;
73631;PMS5003;61924;53.268;-2.458;2023-01-15T04:42:26;1;0;
73631;PMS5003;61924;53.268;-2.458;2023-01-15T04:44:51;1;1;
73631;PMS5003;61924;53.268;-2.458;2023-01-15T04:47:16;1;1;
73631;PMS5003;61924;53.268;-2.458;2023-01-15T04:49:42;0;0;
73631;PMS5003;61924;53.268;-2.458;2023-01-15T04:52:07;1;0;
73631;PMS5003;61924;53.268;-2.458;2023-01-15T04:54:33;1;1;
73631;PMS5003;61924;53.268;-2.458;2023-01-15T04:56:58;0;0;
73631;PMS5003;61924;53.268;-2.458;2023-01-15T04:59:25;0;0;
73631;PMS5003;61924;53.268;-2.458;2023-01-15T05:01:49;0;0;
73631;PMS5003;61924;53.268;-2.458;2023-01-15T05:04:14;1;1;
73631;PMS5003;61924;53.268;-2.458;2023-01-15T05:06:40;0;0;
73631;PMS5003;61924;53.268;-2.458;2023-01-15T05:09:05;1;0;
73631;PMS5003;61924;53.268;-2.458;2023-01-15T05:11:33;0;0;
73631;PMS5003;61924;53.268;-2.458;2023-01-15T05:13:56;1;1;
73631;PMS5003;61924;53.268;-2.458;2023-01-15T05:16:23;1;1;
73631;PMS5003;61924;53.268;-2.458;2023-01-15T05:18:47;1;1;
73631;PMS5003;61924;53.268;-2.458;2023-01-15T05:21:13;0;0;
73631;PMS5003;61924;53.268;-2.458;2023-01-15T05:23:38;1;0;
73631;PMS5003;61924;53.268;-2.458;2023-01-15T05:26:04;0;0;
73631;PMS5003;61924;53.268;-2.458;2023-01-15T05:28:29;1;1;
73631;PMS5003;61924;53.268;-2.458;2023-01-15T05:30:54;1;1;
73631;PMS5003;61924;53.268;-2.458;2023-01-15T05:33:20;0;0;
73631;PMS5003;61924;53.268;-2.458;2023-01-15T05:35:46;0;0;
73631;PMS5003;61924;53.268;-2.458;2023-01-15T05:38:11;1;0;
73631;PMS5003;61924;53.268;-2.458;2023-01-15T05:40:37;2;1;
73631;PMS5003;61924;53.268;-2.458;2023-01-15T05:43:02;0;0;
73631;PMS5003;61924;53.268;-2.458;2023-01-15T05:45:28;2;2;
73631;PMS5003;61924;53.268;-2.458;2023-01-15T05:47:54;0;0;
73631;PMS5003;61924;53.268;-2.458;2023-01-15T05:50:19;0;0;
73631;PMS5003;61924;53.268;-2.458;2023-01-15T05:52:45;0;0;
73631;PMS5003;61924;53.268;-2.458;2023-01-15T05:55:11;3;3;
73631;PMS5003;61924;53.268;-2.458;2023-01-15T05:57:37;0;0;
73631;PMS5003;61924;53.268;-2.458;2023-01-15T06:00:02;1;0;
73631;PMS5003;61924;53.268;-2.458;2023-01-15T06:02:28;1;0;
73631;PMS5003;61924;53.268;-2.458;2023-01-15T06:04:53;0;0;
73631;PMS5003;61924;53.268;-2.458;2023-01-15T06:07:19;1;1;
73631;PMS5003;61924;53.268;-2.458;2023-01-15T06:09:44;1;0;
73631;PMS5003;61924;53.268;-2.458;2023-01-15T06:12:09;0;0;
73631;PMS5003;61924;53.268;-2.458;2023-01-15T06:14:34;0;0;
73631;PMS5003;61924;53.268;-2.458;2023-01-15T06:17:00;0;0;
73631;PMS5003;61924;53.268;-2.458;2023-01-15T06:19:26;0;0;
73631;PMS5003;61924;53.268;-2.458;2023-01-15T06:21:51;0;0;
73631;PMS5003;61924;53.268;-2.458;2023-01-15T06:24:16;1;1;
73631;PMS5003;61924;53.268;-2.458;2023-01-15T06:26:42;0;0;
73631;PMS5003;61924;53.268;-2.458;2023-01-15T06:29:08;1;1;
73631;PMS5003;61924;53.268;-2.458;2023-01-15T06:31:33;0;0;
73631;PMS5003;61924;53.268;-2.458;2023-01-15T06:33:58;0;0;
73631;PMS5003;61924;53.268;-2.458;2023-01-15T06:36:25;1;1;
73631;PMS5003;61924;53.268;-2.458;2023-01-15T06:38:50;1;0;
73631;PMS5003;61924;53.268;-2.458;2023-01-15T06:41:16;0;0;
73631;PMS5003;61924;53.268;-2.458;2023-01-15T06:43:41;0;0;
73631;PMS5003;61924;53.268;-2.458;2023-01-15T06:46:07;0;0;
73631;PMS5003;61924;53.268;-2.458;2023-01-15T06:48:32;2;2;
73631;PMS5003;61924;53.268;-2.458;2023-01-15T06:50:57;0;0;
73631;PMS5003;61924;53.268;-2.458;2023-01-15T06:53:23;0;0;
73631;PMS5003;61924;53.268;-2.458;2023-01-15T06:55:49;0;0;
73631;PMS5003;61924;53.268;-2.458;2023-01-15T06:58:14;0;0;
73631;PMS5003;61924;53.268;-2.458;2023-01-15T07:00:40;0;0;
73631;PMS5003;61924;53.268;-2.458;2023-01-15T07:03:06;1;1;
73631;PMS5003;61924;53.268;-2.458;2023-01-15T07:05:31;0;0;
73631;PMS5003;61924;53.268;-2.458;2023-01-15T07:07:57;1;0;
73631;PMS5003;61924;53.268;-2.458;2023-01-15T07:10:23;0;0;
73631;PMS5003;61924;53.268;-2.458;2023-01-15T07:12:48;0;0;
73631;PMS5003;61924;53.268;-2.458;2023-01-15T07:15:13;0;0;
73631;PMS5003;61924;53.268;-2.458;2023-01-15T07:17:38;0;0;
73631;PMS5003;61924;53.268;-2.458;2023-01-15T07:20:04;0;0;
73631;PMS5003;61924;53.268;-2.458;2023-01-15T07:22:29;1;1;
73631;PMS5003;61924;53.268;-2.458;2023-01-15T07:24:54;0;0;
73631;PMS5003;61924;53.268;-2.458;2023-01-15T07:27:20;0;0;
73631;PMS5003;61924;53.268;-2.458;2023-01-15T07:29:45;0;0;
73631;PMS5003;61924;53.268;-2.458;2023-01-15T07:32:11;0;0;
73631;PMS5003;61924;53.268;-2.458;2023-01-15T07:34:36;0;0;
73631;PMS5003;61924;53.268;-2.458;2023-01-15T07:37:02;0;0;
73631;PMS5003;61924;53.268;-2.458;2023-01-15T07:39:27;0;0;
73631;PMS5003;61924;53.268;-2.458;2023-01-15T07:41:52;0;0;
73631;PMS5003;61924;53.268;-2.458;2023-01-15T07:44:18;1;1;
73631;PMS5003;61924;53.268;-2.458;2023-01-15T07:46:44;0;0;
73631;PMS5003;61924;53.268;-2.458;2023-01-15T07:49:09;0;0;
73631;PMS5003;61924;53.268;-2.458;2023-01-15T07:51:34;0;0;
73631;PMS5003;61924;53.268;-2.458;2023-01-15T07:54:00;0;0;
73631;PMS5003;61924;53.268;-2.458;2023-01-15T07:56:25;0;0;
73631;PMS5003;61924;53.268;-2.458;2023-01-15T07:58:50;0;0;
73631;PMS5003;61924;53.268;-2.458;2023-01-15T08:01:15;0;0;
73631;PMS5003;61924;53.268;-2.458;2023-01-15T08:03:41;0;0;
73631;PMS5003;61924;53.268;-2.458;2023-01-15T08:06:06;0;0;
73631;PMS5003;61924;53.268;-2.458;2023-01-15T08:08:32;0;0;
73631;PMS5003;61924;53.268;-2.458;2023-01-15T08:11:00;0;0;
73631;PMS5003;61924;53.268;-2.458;2023-01-15T08:13:23;0;0;
73631;PMS5003;61924;53.268;-2.458;2023-01-15T08:15:49;0;0;
73631;PMS5003;61924;53.268;-2.458;2023-01-15T08:18:14;1;0;
73631;PMS5003;61924;53.268;-2.458;2023-01-15T08:20:39;0;0;
73631;PMS5003;61924;53.268;-2.458;2023-01-15T08:23:05;0;0;
73631;PMS5003;61924;53.268;-2.458;2023-01-15T08:25:30;0;0;
73631;PMS5003;61924;53.268;-2.458;2023-01-15T08:27:59;0;0;
73631;PMS5003;61924;53.268;-2.458;2023-01-15T08:30:22;0;0;
73631;PMS5003;61924;53.268;-2.458;2023-01-15T08:32:47;0;0;
73631;PMS5003;61924;53.268;-2.458;2023-01-15T08:35:12;0;0;
73631;PMS5003;61924;53.268;-2.458;2023-01-15T08:37:38;0;0;
73631;PMS5003;61924;53.268;-2.458;2023-01-15T08:40:03;0;0;
73631;PMS5003;61924;53.268;-2.458;2023-01-15T08:42:28;0;0;
73631;PMS5003;61924;53.268;-2.458;2023-01-15T08:44:53;0;0;
73631;PMS5003;61924;53.268;-2.458;2023-01-15T08:47:19;0;0;
73631;PMS5003;61924;53.268;-2.458;2023-01-15T08:49:45;0;0;
73631;PMS5003;61924;53.268;-2.458;2023-01-15T08:52:10;0;0;
73631;PMS5003;61924;53.268;-2.458;2023-01-15T08:54:35;1;0;
73631;PMS5003;61924;53.268;-2.458;2023-01-15T08:57:01;0;0;
73631;PMS5003;61924;53.268;-2.458;2023-01-15T08:59:26;0;0;
73631;PMS5003;61924;53.268;-2.458;2023-01-15T09:01:51;0;0;
73631;PMS5003;61924;53.268;-2.458;2023-01-15T09:04:17;0;0;
73631;PMS5003;61924;53.268;-2.458;2023-01-15T09:06:42;0;0;
73631;PMS5003;61924;53.268;-2.458;2023-01-15T09:09:08;0;0;
73631;PMS5003;61924;53.268;-2.458;2023-01-15T09:11:33;0;0;
73631;PMS5003;61924;53.268;-2.458;2023-01-15T09:13:58;0;0;
73631;PMS5003;61924;53.268;-2.458;2023-01-15T09:16:24;0;0;
73631;PMS5003;61924;53.268;-2.458;2023-01-15T09:18:50;0;0;
73631;PMS5003;61924;53.268;-2.458;2023-01-15T09:21:15;0;0;
73631;PMS5003;61924;53.268;-2.458;2023-01-15T09:23:41;0;0;
73631;PMS5003;61924;53.268;-2.458;2023-01-15T09:26:19;0;0;
73631;PMS5003;61924;53.268;-2.458;2023-01-15T09:28:33;0;0;
73631;PMS5003;61924;53.268;-2.458;2023-01-15T09:30:58;0;0;
73631;PMS5003;61924;53.268;-2.458;2023-01-15T09:33:24;0;0;
73631;PMS5003;61924;53.268;-2.458;2023-01-15T09:35:50;0;0;
73631;PMS5003;61924;53.268;-2.458;2023-01-15T09:38:16;0;0;
73631;PMS5003;61924;53.268;-2.458;2023-01-15T09:40:44;1;1;
73631;PMS5003;61924;53.268;-2.458;2023-01-15T09:43:07;0;0;
73631;PMS5003;61924;53.268;-2.458;2023-01-15T09:45:34;0;0;
73631;PMS5003;61924;53.268;-2.458;2023-01-15T09:48:08;0;0;
73631;PMS5003;61924;53.268;-2.458;2023-01-15T09:50:24;0;0;
73631;PMS5003;61924;53.268;-2.458;2023-01-15T09:52:54;0;0;
73631;PMS5003;61924;53.268;-2.458;2023-01-15T09:55:14;0;0;
73631;PMS5003;61924;53.268;-2.458;2023-01-15T09:57:39;0;0;
73631;PMS5003;61924;53.268;-2.458;2023-01-15T10:00:05;0;0;
73631;PMS5003;61924;53.268;-2.458;2023-01-15T10:02:33;0;0;
73631;PMS5003;61924;53.268;-2.458;2023-01-15T10:04:56;0;0;
73631;PMS5003;61924;53.268;-2.458;2023-01-15T10:07:22;0;0;
73631;PMS5003;61924;53.268;-2.458;2023-01-15T10:09:46;0;0;
73631;PMS5003;61924;53.268;-2.458;2023-01-15T10:12:13;0;0;
73631;PMS5003;61924;53.268;-2.458;2023-01-15T10:14:39;2;2;
73631;PMS5003;61924;53.268;-2.458;2023-01-15T10:17:05;0;0;
73631;PMS5003;61924;53.268;-2.458;2023-01-15T10:19:29;0;0;
73631;PMS5003;61924;53.268;-2.458;2023-01-15T10:21:56;0;0;
73631;PMS5003;61924;53.268;-2.458;2023-01-15T10:24:22;0;0;
73631;PMS5003;61924;53.268;-2.458;2023-01-15T10:26:47;0;0;
73631;PMS5003;61924;53.268;-2.458;2023-01-15T10:29:14;0;0;
73631;PMS5003;61924;53.268;-2.458;2023-01-15T10:31:41;0;0;
73631;PMS5003;61924;53.268;-2.458;2023-01-15T10:34:07;0;0;
73631;PMS5003;61924;53.268;-2.458;2023-01-15T10:36:29;0;0;
73631;PMS5003;61924;53.268;-2.458;2023-01-15T10:38:55;0;0;
73631;PMS5003;61924;53.268;-2.458;2023-01-15T10:41:23;0;0;
73631;PMS5003;61924;53.268;-2.458;2023-01-15T10:43:47;0;0;
73631;PMS5003;61924;53.268;-2.458;2023-01-15T10:46:11;0;0;
73631;PMS5003;61924;53.268;-2.458;2023-01-15T10:48:37;0;0;
73631;PMS5003;61924;53.268;-2.458;2023-01-15T10:51:02;0;0;
73631;PMS5003;61924;53.268;-2.458;2023-01-15T10:53:28;0;0;
73631;PMS5003;61924;53.268;-2.458;2023-01-15T10:55:54;0;0;
73631;PMS5003;61924;53.268;-2.458;2023-01-15T10:58:20;0;0;
73631;PMS5003;61924;53.268;-2.458;2023-01-15T11:00:45;0;0;
73631;PMS5003;61924;53.268;-2.458;2023-01-15T11:03:09;0;0;
73631;PMS5003;61924;53.268;-2.458;2023-01-15T11:05:34;0;0;
73631;PMS5003;61924;53.268;-2.458;2023-01-15T11:08:00;0;0;
73631;PMS5003;61924;53.268;-2.458;2023-01-15T11:10:25;0;0;
73631;PMS5003;61924;53.268;-2.458;2023-01-15T11:12:50;0;0;
73631;PMS5003;61924;53.268;-2.458;2023-01-15T11:15:20;0;0;
73631;PMS5003;61924;53.268;-2.458;2023-01-15T11:17:42;0;0;
73631;PMS5003;61924;53.268;-2.458;2023-01-15T11:20:13;0;0;
73631;PMS5003;61924;53.268;-2.458;2023-01-15T11:20:19;0;0;
73631;PMS5003;61924;53.268;-2.458;2023-01-15T11:22:41;0;0;
73631;PMS5003;61924;53.268;-2.458;2023-01-15T11:25:06;0;0;
73631;PMS5003;61924;53.268;-2.458;2023-01-15T11:27:31;0;0;
73631;PMS5003;61924;53.268;-2.458;2023-01-15T11:29:58;1;1;
73631;PMS5003;61924;53.268;-2.458;2023-01-15T11:32:25;0;0;
73631;PMS5003;61924;53.268;-2.458;2023-01-15T11:34:52;1;0;
73631;PMS5003;61924;53.268;-2.458;2023-01-15T11:37:13;0;0;
73631;PMS5003;61924;53.268;-2.458;2023-01-15T11:39:38;0;0;
73631;PMS5003;61924;53.268;-2.458;2023-01-15T11:42:04;0;0;
73631;PMS5003;61924;53.268;-2.458;2023-01-15T11:44:29;0;0;
73631;PMS5003;61924;53.268;-2.458;2023-01-15T11:46:54;0;0;
73631;PMS5003;61924;53.268;-2.458;2023-01-15T11:49:20;0;0;
73631;PMS5003;61924;53.268;-2.458;2023-01-15T11:51:46;0;0;
73631;PMS5003;61924;53.268;-2.458;2023-01-15T11:54:11;0;0;
73631;PMS5003;61924;53.268;-2.458;2023-01-15T11:56:35;0;0;
73631;PMS5003;61924;53.268;-2.458;2023-01-15T11:59:01;0;0;
73631;PMS5003;61924;53.268;-2.458;2023-01-15T12:01:27;0;0;
73631;PMS5003;61924;53.268;-2.458;2023-01-15T12:03:51;0;0;
73631;PMS5003;61924;53.268;-2.458;2023-01-15T12:06:17;0;0;
73631;PMS5003;61924;53.268;-2.458;2023-01-15T12:08:44;0;0;
73631;PMS5003;61924;53.268;-2.458;2023-01-15T12:11:09;1;1;
73631;PMS5003;61924;53.268;-2.458;2023-01-15T12:13:35;0;0;
73631;PMS5003;61924;53.268;-2.458;2023-01-15T12:16:00;0;0;
73631;PMS5003;61924;53.268;-2.458;2023-01-15T12:18:32;0;0;
73631;PMS5003;61924;53.268;-2.458;2023-01-15T12:20:53;0;0;
73631;PMS5003;61924;53.268;-2.458;2023-01-15T12:23:22;0;0;
73631;PMS5003;61924;53.268;-2.458;2023-01-15T12:25:42;0;0;
73631;PMS5003;61924;53.268;-2.458;2023-01-15T12:28:09;0;0;
73631;PMS5003;61924;53.268;-2.458;2023-01-15T12:30:33;1;0;
73631;PMS5003;61924;53.268;-2.458;2023-01-15T12:32:59;0;0;
73631;PMS5003;61924;53.268;-2.458;2023-01-15T12:35:23;0;0;
73631;PMS5003;61924;53.268;-2.458;2023-01-15T12:37:49;0;0;
73631;PMS5003;61924;53.268;-2.458;2023-01-15T12:40:17;0;0;
73631;PMS5003;61924;53.268;-2.458;2023-01-15T12:42:38;0;0;
73631;PMS5003;61924;53.268;-2.458;2023-01-15T12:45:05;1;1;
73631;PMS5003;61924;53.268;-2.458;2023-01-15T12:47:31;1;1;
73631;PMS5003;61924;53.268;-2.458;2023-01-15T12:49:56;0;0;
73631;PMS5003;61924;53.268;-2.458;2023-01-15T12:52:23;0;0;
73631;PMS5003;61924;53.268;-2.458;2023-01-15T12:54:47;0;0;
73631;PMS5003;61924;53.268;-2.458;2023-01-15T12:57:12;0;0;
73631;PMS5003;61924;53.268;-2.458;2023-01-15T12:59:38;1;1;
73631;PMS5003;61924;53.268;-2.458;2023-01-15T13:02:08;2;2;
73631;PMS5003;61924;53.268;-2.458;2023-01-15T13:04:29;1;1;
73631;PMS5003;61924;53.268;-2.458;2023-01-15T13:06:55;2;2;
73631;PMS5003;61924;53.268;-2.458;2023-01-15T13:09:24;0;0;
73631;PMS5003;61924;53.268;-2.458;2023-01-15T13:11:45;2;1;
73631;PMS5003;61924;53.268;-2.458;2023-01-15T13:14:12;1;1;
73631;PMS5003;61924;53.268;-2.458;2023-01-15T13:16:37;2;2;
73631;PMS5003;61924;53.268;-2.458;2023-01-15T13:19:06;4;3;
73631;PMS5003;61924;53.268;-2.458;2023-01-15T13:21:27;2;2;
73631;PMS5003;61924;53.268;-2.458;2023-01-15T13:23:56;3;3;
73631;PMS5003;61924;53.268;-2.458;2023-01-15T13:26:21;2;2;
73631;PMS5003;61924;53.268;-2.458;2023-01-15T13:28:48;2;2;
73631;PMS5003;61924;53.268;-2.458;2023-01-15T13:31:12;2;2;
73631;PMS5003;61924;53.268;-2.458;2023-01-15T13:33:35;1;1;
73631;PMS5003;61924;53.268;-2.458;2023-01-15T13:36:02;3;3;
73631;PMS5003;61924;53.268;-2.458;2023-01-15T13:38:25;2;2;
73631;PMS5003;61924;53.268;-2.458;2023-01-15T13:40:51;3;3;
73631;PMS5003;61924;53.268;-2.458;2023-01-15T13:43:21;4;3;
73631;PMS5003;61924;53.268;-2.458;2023-01-15T13:45:42;2;2;
73631;PMS5003;61924;53.268;-2.458;2023-01-15T13:48:07;2;2;
73631;PMS5003;61924;53.268;-2.458;2023-01-15T13:50:33;2;2;
73631;PMS5003;61924;53.268;-2.458;2023-01-15T13:52:59;2;2;
73631;PMS5003;61924;53.268;-2.458;2023-01-15T13:55:25;3;2;
73631;PMS5003;61924;53.268;-2.458;2023-01-15T13:57:48;4;3;
73631;PMS5003;61924;53.268;-2.458;2023-01-15T14:00:26;0;0;
73631;PMS5003;61924;53.268;-2.458;2023-01-15T14:02:39;3;3;
73631;PMS5003;61924;53.268;-2.458;2023-01-15T14:05:17;3;3;
73631;PMS5003;61924;53.268;-2.458;2023-01-15T14:07:31;2;2;
73631;PMS5003;61924;53.268;-2.458;2023-01-15T14:10:05;4;4;
73631;PMS5003;61924;53.268;-2.458;2023-01-15T14:12:24;3;3;
73631;PMS5003;61924;53.268;-2.458;2023-01-15T14:15:07;1;1;
73631;PMS5003;61924;53.268;-2.458;2023-01-15T14:17:20;3;3;
73631;PMS5003;61924;53.268;-2.458;2023-01-15T14:19:46;2;2;
73631;PMS5003;61924;53.268;-2.458;2023-01-15T14:22:11;3;3;
73631;PMS5003;61924;53.268;-2.458;2023-01-15T14:24:38;1;1;
73631;PMS5003;61924;53.268;-2.458;2023-01-15T14:26:55;2;2;
73631;PMS5003;61924;53.268;-2.458;2023-01-15T14:29:31;2;2;
73631;PMS5003;61924;53.268;-2.458;2023-01-15T14:31:47;2;2;
73631;PMS5003;61924;53.268;-2.458;2023-01-15T14:34:12;0;0;
73631;PMS5003;61924;53.268;-2.458;2023-01-15T14:36:37;1;1;
73631;PMS5003;61924;53.268;-2.458;2023-01-15T14:39:02;2;2;
73631;PMS5003;61924;53.268;-2.458;2023-01-15T14:41:27;2;2;
73631;PMS5003;61924;53.268;-2.458;2023-01-15T14:43:51;2;2;
73631;PMS5003;61924;53.268;-2.458;2023-01-15T14:46:20;2;2;
73631;PMS5003;61924;53.268;-2.458;2023-01-15T14:48:43;1;1;
73631;PMS5003;61924;53.268;-2.458;2023-01-15T14:51:09;1;1;
73631;PMS5003;61924;53.268;-2.458;2023-01-15T14:53:35;1;1;
73631;PMS5003;61924;53.268;-2.458;2023-01-15T14:56:01;3;3;
73631;PMS5003;61924;53.268;-2.458;2023-01-15T14:58:29;1;1;
73631;PMS5003;61924;53.268;-2.458;2023-01-15T15:00:50;1;1;
73631;PMS5003;61924;53.268;-2.458;2023-01-15T15:03:16;3;2;
73631;PMS5003;61924;53.268;-2.458;2023-01-15T15:05:40;1;1;
73631;PMS5003;61924;53.268;-2.458;2023-01-15T15:08:06;1;1;
73631;PMS5003;61924;53.268;-2.458;2023-01-15T15:10:32;2;2;
73631;PMS5003;61924;53.268;-2.458;2023-01-15T15:12:57;0;0;
73631;PMS5003;61924;53.268;-2.458;2023-01-15T15:15:26;3;2;
73631;PMS5003;61924;53.268;-2.458;2023-01-15T15:17:52;2;2;
73631;PMS5003;61924;53.268;-2.458;2023-01-15T15:20:18;3;3;
73631;PMS5003;61924;53.268;-2.458;2023-01-15T15:22:38;8;6;
73631;PMS5003;61924;53.268;-2.458;2023-01-15T15:25:07;6;6;
73631;PMS5003;61924;53.268;-2.458;2023-01-15T15:27:29;6;6;
73631;PMS5003;61924;53.268;-2.458;2023-01-15T15:30:02;6;6;
73631;PMS5003;61924;53.268;-2.458;2023-01-15T15:32:21;10;10;
73631;PMS5003;61924;53.268;-2.458;2023-01-15T15:34:46;6;6;
73631;PMS5003;61924;53.268;-2.458;2023-01-15T15:37:11;9;8;
73631;PMS5003;61924;53.268;-2.458;2023-01-15T15:39:38;5;5;
73631;PMS5003;61924;53.268;-2.458;2023-01-15T15:42:01;10;9;
73631;PMS5003;61924;53.268;-2.458;2023-01-15T15:44:29;11;9;
73631;PMS5003;61924;53.268;-2.458;2023-01-15T15:46:52;12;10;
73631;PMS5003;61924;53.268;-2.458;2023-01-15T15:49:17;14;13;
73631;PMS5003;61924;53.268;-2.458;2023-01-15T15:51:44;8;8;
73631;PMS5003;61924;53.268;-2.458;2023-01-15T15:54:11;12;12;
73631;PMS5003;61924;53.268;-2.458;2023-01-15T15:56:34;10;10;
73631;PMS5003;61924;53.268;-2.458;2023-01-15T15:58:59;13;12;
73631;PMS5003;61924;53.268;-2.458;2023-01-15T16:01:24;14;13;
73631;PMS5003;61924;53.268;-2.458;2023-01-15T16:03:49;17;14;
73631;PMS5003;61924;53.268;-2.458;2023-01-15T16:06:18;14;13;
73631;PMS5003;61924;53.268;-2.458;2023-01-15T16:08:41;16;15;
73631;PMS5003;61924;53.268;-2.458;2023-01-15T16:11:09;15;14;
73631;PMS5003;61924;53.268;-2.458;2023-01-15T16:13:32;14;13;
73631;PMS5003;61924;53.268;-2.458;2023-01-15T16:15:57;20;19;
73631;PMS5003;61924;53.268;-2.458;2023-01-15T16:18:23;16;14;